Terminal Aerodrome Forecast
Issued by NWS

Home | Current Version | Previous Version | Text Only | Print | Product List | Glossary On
Versions: 1 2 3 4 5 6 7 8 9 10 11 12 13 14 15 16 17 18 19 20 21
000
FTUS41 KPBZ 211300 AAA
TAFZZV
TAF AMD
KZZV 211320Z 2113/2212 25005KT 2SM BR SCT005 BKN010 OVC015
      TEMPO 2113/2115 5SM -RA BKN005
     FM211500 30008KT P6SM VCSH BKN020=

USA.gov is the U.S. government's official web portal to all federal, state and local government web resources and services.